createdAt,value
2022-09-07T00:12:02.356Z,11.89
2022-09-07T00:21:10.919Z,11.70
2022-09-07T00:27:09.734Z,11.60
2022-09-07T00:38:30.347Z,11.48
2022-09-07T00:40:43.612Z,11.52
2022-09-07T00:45:23.329Z,11.34
2022-09-07T00:47:40.944Z,11.39
2022-09-07T00:52:57.213Z,11.31
2022-09-07T00:58:53.248Z,11.13
2022-09-07T01:01:00.523Z,11.06
2022-09-07T01:08:38.689Z,11.03
2022-09-07T01:10:44.688Z,11.04
2022-09-07T01:12:54.730Z,11.05
2022-09-07T01:18:35.209Z,11.03
2022-09-07T01:21:14.327Z,10.90
2022-09-07T01:23:59.764Z,10.93
2022-09-07T01:26:41.621Z,10.92
2022-09-07T01:28:55.232Z,10.90
2022-09-07T01:31:22.612Z,10.91
2022-09-07T01:33:42.458Z,10.88
2022-09-07T01:38:19.424Z,10.79
2022-09-07T01:40:40.979Z,10.79
2022-09-07T01:43:02.454Z,10.78
2022-09-07T01:45:15.662Z,10.78
2022-09-07T01:47:58.001Z,10.74
2022-09-07T01:53:04.293Z,10.65
2022-09-07T01:55:32.701Z,10.68
2022-09-07T01:57:45.726Z,10.53
2022-09-07T02:00:17.801Z,10.59
2022-09-07T02:05:11.994Z,10.55
2022-09-07T02:07:23.575Z,10.52
2022-09-07T02:09:54.420Z,10.50
2022-09-07T02:12:01.279Z,10.50
2022-09-07T02:14:26.374Z,10.44
2022-09-07T02:16:36.210Z,10.44
2022-09-07T02:21:08.802Z,10.33
2022-09-07T02:23:37.890Z,10.35
2022-09-07T02:25:48.807Z,10.31
2022-09-07T02:28:14.178Z,10.30
2022-09-07T02:30:30.111Z,10.28
2022-09-07T02:32:36.804Z,10.25
2022-09-07T02:34:40.730Z,10.21
2022-09-07T02:36:50.741Z,10.24
2022-09-07T02:41:49.568Z,10.21
2022-09-07T02:43:52.581Z,10.10
2022-09-07T02:46:26.559Z,10.05
2022-09-07T02:49:05.677Z,10.04
2022-09-07T02:51:38.161Z,10.08
2022-09-07T02:54:35.497Z,10.05
2022-09-07T02:57:18.966Z,10.02
2022-09-07T03:00:02.459Z,10.01
2022-09-07T03:02:11.044Z,9.96
2022-09-07T03:04:29.389Z,9.93
2022-09-07T03:07:01.913Z,9.89
2022-09-07T03:09:08.217Z,9.89
2022-09-07T03:11:13.114Z,9.86
2022-09-07T03:13:26.573Z,9.86
2022-09-07T03:15:30.752Z,9.82
2022-09-07T03:17:36.988Z,9.85
2022-09-07T03:19:42.759Z,9.87
2022-09-07T04:07:25.927Z,9.26
2022-09-07T04:09:27.972Z,9.23
2022-09-07T04:11:29.983Z,9.17
2022-09-07T04:13:32.367Z,9.09
2022-09-07T04:15:34.447Z,9.04
2022-09-07T04:17:36.493Z,9.10
2022-09-07T04:19:38.500Z,9.12
2022-09-07T04:21:41.770Z,9.07
2022-09-07T04:23:43.940Z,9.07
2022-09-07T04:25:52.324Z,9.10
2022-09-07T04:27:56.029Z,9.15
2022-09-07T04:29:58.028Z,9.11
2022-09-07T04:32:00.045Z,9.10
2022-09-07T04:34:02.306Z,9.11
2022-09-07T04:36:04.846Z,9.08
2022-09-07T04:38:07.148Z,9.11
2022-09-07T04:40:09.876Z,9.13
2022-09-07T04:42:11.912Z,9.08
2022-09-07T04:44:16.976Z,9.07
2022-09-07T04:46:30.302Z,8.99
2022-09-07T04:48:32.266Z,8.93
2022-09-07T04:50:34.327Z,8.91
2022-09-07T04:52:36.385Z,8.93
2022-09-07T04:54:38.705Z,8.93
2022-09-07T04:56:40.723Z,8.95
2022-09-07T04:58:42.715Z,8.93
2022-09-07T05:00:44.705Z,9.02
2022-09-07T05:02:46.753Z,9.05
2022-09-07T05:04:48.845Z,9.09
2022-09-07T05:06:50.945Z,9.09
2022-09-07T05:08:53.866Z,9.12
2022-09-07T05:10:56.797Z,9.14
2022-09-07T05:12:58.839Z,9.20
2022-09-07T05:15:01.693Z,9.19
2022-09-07T05:17:04.616Z,9.17
2022-09-07T05:19:06.609Z,9.18
2022-09-07T05:21:16.980Z,9.18
2022-09-07T05:23:19.060Z,9.18
2022-09-07T05:25:21.074Z,9.20
2022-09-07T05:27:23.073Z,9.28
2022-09-07T05:31:48.316Z,9.34
2022-09-07T05:36:16.671Z,9.42
2022-09-07T05:38:18.671Z,9.43
2022-09-07T05:40:22.310Z,9.50
2022-09-07T05:42:24.380Z,9.54
2022-09-07T05:46:44.161Z,9.58
2022-09-07T05:48:46.211Z,9.60
2022-09-07T05:50:52.717Z,9.67
2022-09-07T05:52:54.750Z,9.71
2022-09-07T05:55:13.059Z,9.70
2022-09-07T05:57:18.747Z,9.72
2022-09-07T05:59:20.711Z,9.75
2022-09-07T06:01:22.733Z,9.78
2022-09-07T06:03:25.097Z,9.84
2022-09-07T06:05:27.226Z,9.86
2022-09-07T06:07:29.271Z,9.93
2022-09-07T06:09:31.521Z,9.97
2022-09-07T06:11:33.512Z,10.04
2022-09-07T06:13:35.733Z,10.05
2022-09-07T06:15:37.804Z,10.07
2022-09-07T06:17:39.979Z,10.10
2022-09-07T06:19:41.982Z,10.12
2022-09-07T06:21:44.020Z,10.16
2022-09-07T06:23:46.521Z,10.24
2022-09-07T06:25:49.859Z,10.28
2022-09-07T06:27:53.975Z,10.35
2022-09-07T06:29:56.030Z,10.38
2022-09-07T06:34:20.072Z,10.57
2022-09-07T06:36:23.918Z,10.60
2022-09-07T06:38:31.843Z,10.69
2022-09-07T06:40:34.837Z,10.78
2022-09-07T06:42:36.841Z,10.81
2022-09-07T06:44:38.968Z,10.89
2022-09-07T06:49:02.940Z,11.04
2022-09-07T06:51:07.901Z,11.13
2022-09-07T06:55:32.441Z,11.43
2022-09-07T06:57:34.511Z,11.52
2022-09-07T06:59:36.744Z,11.62
2022-09-07T07:01:38.793Z,11.74
2022-09-07T07:03:41.280Z,11.82
2022-09-07T07:05:50.898Z,11.92
2022-09-07T07:07:52.988Z,12.05
2022-09-07T07:09:55.216Z,12.13
2022-09-07T07:11:57.220Z,12.24
2022-09-07T07:14:00.053Z,12.35
2022-09-07T07:16:10.037Z,12.47
2022-09-07T07:18:20.776Z,12.59
2022-09-07T07:20:32.980Z,12.73
2022-09-07T07:22:50.454Z,12.86
2022-09-07T07:24:52.477Z,12.99
2022-09-07T07:26:54.477Z,13.14
2022-09-07T07:31:07.194Z,13.36
2022-09-07T07:33:11.548Z,13.52
2022-09-07T07:35:14.260Z,13.61
2022-09-07T07:37:16.301Z,13.67
2022-09-07T07:41:57.658Z,13.95
2022-09-07T07:44:03.259Z,14.11
2022-09-07T07:46:06.342Z,14.25
2022-09-07T07:48:09.143Z,14.46
2022-09-07T07:55:00.971Z,14.82
2022-09-07T07:57:04.234Z,14.93
2022-09-07T07:59:06.430Z,15.10
2022-09-07T08:01:12.473Z,15.26
2022-09-07T08:03:14.481Z,15.38
2022-09-07T08:05:17.222Z,15.55
2022-09-07T08:07:19.579Z,15.71
2022-09-07T08:09:21.581Z,15.86
2022-09-07T08:11:23.654Z,15.97
2022-09-07T08:13:26.213Z,16.02
2022-09-07T08:15:28.190Z,16.12
2022-09-07T08:17:30.139Z,16.23
2022-09-07T08:19:32.108Z,16.37
2022-09-07T08:21:34.062Z,16.45
2022-09-07T08:23:37.290Z,16.58
2022-09-07T08:25:39.308Z,16.84
2022-09-07T08:27:41.285Z,16.98
2022-09-07T08:29:43.268Z,17.25
2022-09-07T08:31:45.531Z,17.43
2022-09-07T08:33:47.516Z,17.61
2022-09-07T08:36:01.264Z,17.79
2022-09-07T08:38:03.216Z,17.95
2022-09-07T08:40:05.738Z,18.10
2022-09-07T08:42:15.396Z,18.23
2022-09-07T08:44:47.631Z,18.47
2022-09-07T08:46:55.112Z,18.67
2022-09-07T08:48:57.309Z,18.77
2022-09-07T08:51:10.275Z,18.68
2022-09-07T08:53:19.593Z,18.63
2022-09-07T08:55:21.485Z,18.77
2022-09-07T08:57:27.402Z,19.10
2022-09-07T08:59:59.919Z,19.25
2022-09-07T09:04:29.439Z,19.34
2022-09-07T09:07:20.983Z,19.47
2022-09-07T09:10:01.077Z,19.49
2022-09-07T09:12:27.593Z,19.82
2022-09-07T09:15:00.191Z,20.04
2022-09-07T09:17:10.887Z,20.18
2022-09-07T09:19:32.087Z,20.24
2022-09-07T09:21:35.613Z,20.35
2022-09-07T09:23:41.589Z,20.48
2022-09-07T09:26:04.838Z,20.63
2022-09-07T09:28:11.126Z,20.82
2022-09-07T09:30:19.609Z,21.04
2022-09-07T09:32:52.892Z,21.01
2022-09-07T09:35:15.369Z,21.24
2022-09-07T09:37:17.424Z,21.60
2022-09-07T09:39:33.955Z,21.97
2022-09-07T09:41:36.930Z,22.28
2022-09-07T09:43:56.603Z,22.36
2022-09-07T09:46:13.895Z,22.70
2022-09-07T09:48:40.457Z,23.36
2022-09-07T09:53:34.851Z,24.31
2022-09-07T09:55:37.414Z,24.91
2022-09-07T10:00:29.323Z,25.25
2022-09-07T10:04:55.205Z,25.69
2022-09-07T10:07:20.708Z,25.53
2022-09-07T10:09:25.970Z,25.74
2022-09-07T10:14:19.292Z,26.19
2022-09-07T10:16:21.546Z,26.30
2022-09-07T10:18:36.041Z,26.66
2022-09-07T10:20:38.216Z,27.45
2022-09-07T10:22:40.883Z,27.89
2022-09-07T10:24:42.820Z,28.15
2022-09-07T10:26:44.905Z,27.58
2022-09-07T10:31:26.378Z,28.24
2022-09-07T10:36:37.572Z,28.88
2022-09-07T10:38:46.152Z,28.95
2022-09-07T10:41:04.293Z,28.79
2022-09-07T10:43:31.895Z,28.85
2022-09-07T10:45:58.297Z,29.40
2022-09-07T10:48:35.608Z,29.49
2022-09-07T10:51:05.039Z,29.89
2022-09-07T10:53:46.630Z,30.15
2022-09-07T10:56:26.913Z,30.50
2022-09-07T10:59:18.925Z,30.43
2022-09-07T11:01:33.428Z,30.93
2022-09-07T11:04:29.560Z,31.32
2022-09-07T11:06:41.723Z,31.78
2022-09-07T11:09:17.033Z,32.40
2022-09-07T11:14:13.619Z,32.55
2022-09-07T11:24:11.282Z,31.63
2022-09-07T11:26:25.110Z,32.19
2022-09-07T11:28:45.885Z,32.19
2022-09-07T11:31:00.231Z,32.55
2022-09-07T11:33:35.514Z,32.31
2022-09-07T11:35:43.902Z,32.18
2022-09-07T11:37:49.576Z,32.09
2022-09-07T11:40:36.510Z,32.49
2022-09-07T11:43:22.813Z,33.43
2022-09-07T11:46:21.858Z,34.18
2022-09-07T11:48:31.187Z,34.09
2022-09-07T11:50:36.120Z,34.18
2022-09-07T11:52:40.611Z,33.70
2022-09-07T11:54:53.563Z,33.48
2022-09-07T11:57:15.481Z,33.48
2022-09-07T11:59:20.040Z,32.78
2022-09-07T12:01:56.627Z,32.19
2022-09-07T12:04:51.714Z,31.10
2022-09-07T12:07:33.415Z,30.83
2022-09-07T12:09:44.122Z,30.76
2022-09-07T12:12:08.159Z,30.92
2022-09-07T12:14:30.841Z,30.42
2022-09-07T12:16:59.553Z,30.13
2022-09-07T12:19:22.032Z,30.24
2022-09-07T12:21:30.836Z,30.03
2022-09-07T12:23:33.389Z,30.31
2022-09-07T12:25:35.397Z,30.04
2022-09-07T12:27:38.780Z,30.11
2022-09-07T12:29:45.115Z,30.29
2022-09-07T12:31:58.874Z,30.38
2022-09-07T12:34:38.503Z,30.51
2022-09-07T12:36:41.275Z,30.98
2022-09-07T12:39:30.729Z,30.72
2022-09-07T12:42:32.014Z,30.46
2022-09-07T12:44:19.227Z,30.41
2022-09-07T12:46:43.935Z,30.31
2022-09-07T12:49:08.681Z,30.53
2022-09-07T12:54:06.815Z,30.36
2022-09-07T12:56:38.419Z,30.39
2022-09-07T12:58:59.345Z,30.45
2022-09-07T13:01:35.464Z,31.03
2022-09-07T13:04:12.680Z,31.25
2022-09-07T13:09:16.697Z,31.87
2022-09-07T13:11:21.523Z,32.16
2022-09-07T13:16:15.525Z,31.76
2022-09-07T13:18:29.180Z,32.62
2022-09-07T13:20:36.129Z,33.20
2022-09-07T13:22:39.555Z,32.63
2022-09-07T13:24:56.338Z,32.86
2022-09-07T13:27:11.210Z,33.54
2022-09-07T13:29:13.871Z,33.59
2022-09-07T13:32:07.994Z,33.45
2022-09-07T13:35:01.094Z,33.64
2022-09-07T13:37:12.175Z,33.85
2022-09-07T13:39:16.161Z,34.16
2022-09-07T13:41:32.069Z,34.23
2022-09-07T13:43:34.057Z,34.54
2022-09-07T13:45:55.760Z,33.92
2022-09-07T13:48:25.266Z,34.07
2022-09-07T13:50:36.288Z,34.74
2022-09-07T13:53:15.266Z,34.66
2022-09-07T13:56:12.801Z,34.43
2022-09-07T13:58:35.601Z,35.30
2022-09-07T14:00:37.720Z,34.71
2022-09-07T14:02:39.750Z,34.09
2022-09-07T14:04:43.130Z,34.79
2022-09-07T14:06:45.129Z,35.08
2022-09-07T14:08:49.524Z,35.05
2022-09-07T14:10:51.491Z,34.70
2022-09-07T14:13:08.044Z,34.93
2022-09-07T14:15:22.348Z,34.48
2022-09-07T14:17:24.343Z,34.59
2022-09-07T14:19:39.866Z,34.63
2022-09-07T14:21:41.888Z,34.17
2022-09-07T14:23:43.878Z,33.68
2022-09-07T14:28:31.401Z,33.03
2022-09-07T14:30:33.601Z,32.94
2022-09-07T14:32:36.216Z,32.97
2022-09-07T14:34:38.210Z,32.30
2022-09-07T14:36:45.858Z,32.16
2022-09-07T14:41:18.465Z,32.64
2022-09-07T14:43:37.002Z,31.83
2022-09-07T14:45:39.335Z,31.60
2022-09-07T14:47:41.359Z,32.06
2022-09-07T14:49:43.608Z,31.97
2022-09-07T14:51:48.427Z,31.43
2022-09-07T14:53:51.841Z,31.46
2022-09-07T14:56:02.272Z,32.13
2022-09-07T14:58:16.427Z,32.03
2022-09-07T15:00:32.170Z,31.92
2022-09-07T15:02:36.802Z,31.56
2022-09-07T15:04:38.966Z,31.75
2022-09-07T15:09:07.004Z,31.50
2022-09-07T15:13:35.959Z,31.83
2022-09-07T15:15:39.608Z,31.28
2022-09-07T15:17:43.373Z,31.33
2022-09-07T15:19:45.738Z,31.62
2022-09-07T15:21:47.721Z,31.55
2022-09-07T15:23:54.284Z,31.01
2022-09-07T15:25:56.294Z,30.73
2022-09-07T15:27:58.368Z,30.46
2022-09-07T15:30:00.393Z,29.61
2022-09-07T15:32:04.680Z,29.76
2022-09-07T15:34:18.600Z,29.79
2022-09-07T15:36:20.651Z,29.59
2022-09-07T15:41:20.665Z,29.14
2022-09-07T15:43:23.047Z,28.58
2022-09-07T15:45:25.501Z,28.50
2022-09-07T15:47:47.268Z,28.36
2022-09-07T15:49:51.380Z,28.41
2022-09-07T15:52:08.928Z,28.16
2022-09-07T15:54:13.509Z,27.84
2022-09-07T15:56:17.239Z,27.69
2022-09-07T15:58:21.901Z,27.35
2022-09-07T16:00:23.937Z,27.21
2022-09-07T16:04:48.064Z,26.57
2022-09-07T16:06:50.918Z,26.04
2022-09-07T16:08:53.377Z,25.98
2022-09-07T16:10:56.321Z,25.89
2022-09-07T16:13:11.326Z,25.67
2022-09-07T16:15:18.250Z,25.45
2022-09-07T16:17:34.400Z,25.45
2022-09-07T16:19:41.103Z,25.29
2022-09-07T16:21:43.274Z,25.14
2022-09-07T16:23:48.855Z,24.83
2022-09-07T16:25:58.407Z,24.69
2022-09-07T16:28:00.435Z,24.48
2022-09-07T16:30:02.437Z,24.37
2022-09-07T16:34:26.389Z,23.92
2022-09-07T16:36:28.461Z,23.78
2022-09-07T16:38:47.599Z,23.62
2022-09-07T16:40:50.128Z,23.53
2022-09-07T16:42:52.224Z,23.32
2022-09-07T16:44:54.793Z,23.34
2022-09-07T16:46:56.762Z,23.29
2022-09-07T16:48:58.726Z,23.25
2022-09-07T16:51:02.637Z,23.06
2022-09-07T16:53:04.828Z,23.00
2022-09-07T16:55:07.126Z,22.96
2022-09-07T16:57:09.127Z,22.78
2022-09-07T16:59:13.819Z,22.71
2022-09-07T17:01:18.155Z,22.43
2022-09-07T17:03:20.286Z,22.34
2022-09-07T17:05:22.334Z,22.25
2022-09-07T17:07:24.358Z,22.11
2022-09-07T17:09:28.649Z,22.08
2022-09-07T17:11:33.002Z,22.07
2022-09-07T17:13:36.151Z,22.02
2022-09-07T17:15:38.129Z,21.90
2022-09-07T17:17:40.098Z,21.79
2022-09-07T17:19:42.398Z,21.78
2022-09-07T17:21:46.188Z,21.69
2022-09-07T17:23:54.929Z,21.66
2022-09-07T17:26:14.179Z,21.61
2022-09-07T17:28:16.527Z,21.56
2022-09-07T17:30:20.757Z,21.38
2022-09-07T17:32:25.317Z,21.38
2022-09-07T17:34:28.582Z,21.27
2022-09-07T17:36:30.759Z,21.14
2022-09-07T17:40:55.162Z,20.98
2022-09-07T17:45:19.196Z,20.79
2022-09-07T17:47:21.397Z,20.74
2022-09-07T17:49:24.103Z,20.58
2022-09-07T17:51:28.228Z,20.58
2022-09-07T17:53:30.336Z,20.54
2022-09-07T17:55:32.326Z,20.33
2022-09-07T17:57:34.928Z,20.31
2022-09-07T18:01:58.844Z,20.03
2022-09-07T18:04:00.824Z,20.02
2022-09-07T18:06:03.053Z,19.90
2022-09-07T18:08:05.538Z,19.82
2022-09-07T18:10:07.983Z,19.76
2022-09-07T18:12:09.975Z,19.65
2022-09-07T18:14:13.625Z,19.62
2022-09-07T18:16:17.578Z,19.59
2022-09-07T18:18:20.318Z,19.55
2022-09-07T18:20:24.185Z,19.32
2022-09-07T18:22:26.219Z,19.32
2022-09-07T18:24:28.255Z,19.21
2022-09-07T18:26:30.589Z,19.09
2022-09-07T18:30:54.503Z,18.92
2022-09-07T18:32:58.360Z,18.99
2022-09-07T18:35:01.173Z,18.91
2022-09-07T18:37:03.341Z,18.86
2022-09-07T18:39:05.350Z,18.82
2022-09-07T18:41:12.063Z,18.73
2022-09-07T18:43:14.453Z,18.72
2022-09-07T18:45:33.691Z,18.73
2022-09-07T18:47:35.902Z,18.62
2022-09-07T18:49:38.112Z,18.61
2022-09-07T18:54:02.422Z,18.34
2022-09-07T18:56:06.400Z,18.36
2022-09-07T18:58:08.361Z,18.30
2022-09-07T19:00:11.767Z,18.20
2022-09-07T19:02:14.367Z,18.18
2022-09-07T19:04:16.540Z,18.16
2022-09-07T19:06:18.513Z,18.09
2022-09-07T19:08:20.486Z,18.04
2022-09-07T19:10:23.159Z,17.91
2022-09-07T19:12:25.106Z,17.85
2022-09-07T19:14:27.631Z,17.86
2022-09-07T19:16:29.838Z,17.89
2022-09-07T19:18:32.160Z,17.85
2022-09-07T19:20:34.488Z,17.81
2022-09-07T19:22:36.434Z,17.67
2022-09-07T19:24:38.416Z,17.58
2022-09-07T19:26:43.006Z,17.61
2022-09-07T19:28:52.961Z,17.65
2022-09-07T19:30:55.113Z,17.57
2022-09-07T19:33:00.718Z,17.52
2022-09-07T19:35:05.753Z,17.45
2022-09-07T19:37:10.071Z,17.41
2022-09-07T19:39:12.094Z,17.34
2022-09-07T19:41:17.082Z,17.36
2022-09-07T19:43:19.107Z,17.28
2022-09-07T19:45:21.231Z,17.23
2022-09-07T19:47:24.022Z,17.15
2022-09-07T19:49:25.932Z,17.05
2022-09-07T19:51:27.884Z,17.15
2022-09-07T19:53:34.325Z,17.04
2022-09-07T19:55:36.372Z,17.00
2022-09-07T19:57:38.330Z,16.86
2022-09-07T19:59:40.296Z,16.91
2022-09-07T20:01:47.354Z,16.83
2022-09-07T20:03:58.714Z,16.82
2022-09-07T20:06:08.905Z,16.82
2022-09-07T20:08:10.888Z,16.81
2022-09-07T20:10:12.844Z,16.76
2022-09-07T20:12:14.813Z,16.80
2022-09-07T20:14:17.107Z,16.77
2022-09-07T20:16:19.463Z,16.74
2022-09-07T20:18:22.152Z,16.63
2022-09-07T20:20:24.202Z,16.66
2022-09-07T20:22:26.173Z,16.62
2022-09-07T20:24:28.511Z,16.67
2022-09-07T20:26:32.347Z,16.59
2022-09-07T20:28:34.612Z,16.58
2022-09-07T20:30:42.414Z,16.53
2022-09-07T20:32:44.502Z,16.59
2022-09-07T20:34:46.489Z,16.60
2022-09-07T20:36:51.390Z,16.56
2022-09-07T20:38:55.218Z,16.47
2022-09-07T20:40:59.628Z,16.49
2022-09-07T20:43:01.588Z,16.43
2022-09-07T20:45:03.829Z,16.28
2022-09-07T20:47:05.937Z,16.25
2022-09-07T20:49:07.938Z,16.32
2022-09-07T20:51:12.801Z,16.34
2022-09-07T20:53:14.751Z,16.29
2022-09-07T20:55:16.949Z,16.23
2022-09-07T20:57:18.996Z,16.16
2022-09-07T20:59:21.267Z,16.17
2022-09-07T21:01:23.740Z,16.10
2022-09-07T21:03:25.951Z,16.09
2022-09-07T21:05:28.013Z,16.06
2022-09-07T21:07:30.033Z,16.06
2022-09-07T21:09:32.027Z,16.04
2022-09-07T21:11:35.517Z,15.96
2022-09-07T21:13:37.625Z,15.92
2022-09-07T21:15:44.081Z,15.91
2022-09-07T21:17:46.036Z,15.88
2022-09-07T21:19:47.976Z,15.87
2022-09-07T21:21:49.958Z,15.83
2022-09-07T21:23:59.900Z,15.82
2022-09-07T21:26:02.098Z,15.76
2022-09-07T21:28:04.036Z,15.74
2022-09-07T21:30:06.614Z,15.68
2022-09-07T21:32:08.556Z,15.64
2022-09-07T21:34:10.622Z,15.59
2022-09-07T21:36:13.217Z,15.62
2022-09-07T21:38:15.178Z,15.64
2022-09-07T21:40:17.441Z,15.59
2022-09-07T21:42:19.436Z,15.52
2022-09-07T21:44:21.922Z,15.44
2022-09-07T21:46:24.318Z,15.46
2022-09-07T21:48:26.353Z,15.46
2022-09-07T21:50:28.293Z,15.33
2022-09-07T21:52:30.251Z,15.36
2022-09-07T21:54:32.191Z,15.33
2022-09-07T21:56:34.194Z,15.33
2022-09-07T21:58:36.217Z,15.28
2022-09-07T22:00:38.967Z,15.26
2022-09-07T22:02:40.920Z,15.05
2022-09-07T22:04:42.911Z,15.07
2022-09-07T22:06:44.871Z,15.09
2022-09-07T22:08:46.893Z,14.96
2022-09-07T22:10:48.914Z,15.02
2022-09-07T22:12:50.853Z,15.03
2022-09-07T22:14:52.777Z,15.02
2022-09-07T22:16:54.722Z,14.92
2022-09-07T22:18:56.652Z,14.93
2022-09-07T22:21:13.248Z,14.89
2022-09-07T22:23:15.208Z,14.92
2022-09-07T22:25:17.233Z,14.93
2022-09-07T22:27:19.190Z,14.88
2022-09-07T22:29:21.124Z,14.86
2022-09-07T22:31:28.740Z,14.87
2022-09-07T22:33:30.821Z,14.85
2022-09-07T22:35:32.788Z,14.81
2022-09-07T22:37:34.762Z,14.78
2022-09-07T22:39:37.098Z,14.78
2022-09-07T22:41:39.386Z,14.77
2022-09-07T22:43:41.559Z,14.76
2022-09-07T22:45:43.500Z,14.74
2022-09-07T22:47:45.480Z,14.75
2022-09-07T22:49:47.503Z,14.74
2022-09-07T22:51:49.522Z,14.69
2022-09-07T22:53:51.513Z,14.68
2022-09-07T22:55:53.800Z,14.66
2022-09-07T22:57:55.753Z,14.64
2022-09-07T22:59:57.702Z,14.67
2022-09-07T23:01:59.689Z,14.59
2022-09-07T23:04:02.481Z,14.64
2022-09-07T23:06:04.703Z,14.65
2022-09-07T23:08:06.763Z,14.62
2022-09-07T23:10:09.271Z,14.58
2022-09-07T23:12:11.273Z,14.57
2022-09-07T23:14:19.626Z,14.54
2022-09-07T23:16:21.813Z,14.53
2022-09-07T23:18:24.007Z,14.54
2022-09-07T23:20:25.971Z,14.57
2022-09-07T23:22:27.935Z,14.58
2022-09-07T23:24:29.887Z,14.61
2022-09-07T23:26:32.236Z,14.59
2022-09-07T23:28:34.700Z,14.59
2022-09-07T23:30:36.713Z,14.55
2022-09-07T23:32:38.671Z,14.43
2022-09-07T23:34:40.744Z,14.46
2022-09-07T23:36:42.709Z,14.40
2022-09-07T23:38:45.846Z,14.41
2022-09-07T23:40:47.858Z,14.39
2022-09-07T23:42:49.968Z,14.39
2022-09-07T23:44:51.906Z,14.38
2022-09-07T23:46:53.971Z,14.28
2022-09-07T23:48:56.005Z,14.27
2022-09-07T23:50:57.980Z,14.22
2022-09-07T23:53:00.020Z,14.22
2022-09-07T23:55:02.021Z,14.18
2022-09-07T23:57:04.118Z,14.16
2022-09-07T23:59:06.401Z,14.13
